sensor_id;sensor_type;location;lat;lon;timestamp;temperature;humidity
34099;DHT22;20374;49.474;10.944;2023-03-03T00:01:24;1.40;99.90
34099;DHT22;20374;49.474;10.944;2023-03-03T00:03:51;1.40;99.90
34099;DHT22;20374;49.474;10.944;2023-03-03T00:06:17;1.40;99.90
34099;DHT22;20374;49.474;10.944;2023-03-03T00:08:43;1.30;99.90
34099;DHT22;20374;49.474;10.944;2023-03-03T00:11:10;1.30;99.90
34099;DHT22;20374;49.474;10.944;2023-03-03T00:13:50;1.20;99.90
34099;DHT22;20374;49.474;10.944;2023-03-03T00:16:36;1.20;99.90
34099;DHT22;20374;49.474;10.944;2023-03-03T00:19:14;1.20;99.90
34099;DHT22;20374;49.474;10.944;2023-03-03T00:21:45;1.10;99.90
34099;DHT22;20374;49.474;10.944;2023-03-03T00:26:54;1.10;99.90
34099;DHT22;20374;49.474;10.944;2023-03-03T00:32:16;1.00;99.90
34099;DHT22;20374;49.474;10.944;2023-03-03T00:34:43;1.00;99.90
34099;DHT22;20374;49.474;10.944;2023-03-03T00:37:34;0.90;99.90
34099;DHT22;20374;49.474;10.944;2023-03-03T00:42:51;1.00;99.90
34099;DHT22;20374;49.474;10.944;2023-03-03T00:47:49;0.90;99.90
34099;DHT22;20374;49.474;10.944;2023-03-03T00:53:01;0.90;99.90
34099;DHT22;20374;49.474;10.944;2023-03-03T00:55:28;0.80;99.90
34099;DHT22;20374;49.474;10.944;2023-03-03T00:57:54;0.90;99.90
34099;DHT22;20374;49.474;10.944;2023-03-03T01:00:25;0.90;99.90
34099;DHT22;20374;49.474;10.944;2023-03-03T01:02:51;0.90;99.90
34099;DHT22;20374;49.474;10.944;2023-03-03T01:05:19;0.80;99.90
34099;DHT22;20374;49.474;10.944;2023-03-03T01:07:45;0.80;99.90
34099;DHT22;20374;49.474;10.944;2023-03-03T01:10:12;0.70;99.90
34099;DHT22;20374;49.474;10.944;2023-03-03T01:12:38;0.70;99.90
34099;DHT22;20374;49.474;10.944;2023-03-03T01:15:08;0.60;99.90
34099;DHT22;20374;49.474;10.944;2023-03-03T01:17:35;0.50;99.90
34099;DHT22;20374;49.474;10.944;2023-03-03T01:20:02;0.50;99.90
34099;DHT22;20374;49.474;10.944;2023-03-03T01:22:28;0.50;99.90
34099;DHT22;20374;49.474;10.944;2023-03-03T01:24:54;0.40;99.90
34099;DHT22;20374;49.474;10.944;2023-03-03T01:27:20;0.40;99.90
34099;DHT22;20374;49.474;10.944;2023-03-03T01:29:46;0.40;99.90
34099;DHT22;20374;49.474;10.944;2023-03-03T01:32:12;0.30;99.90
34099;DHT22;20374;49.474;10.944;2023-03-03T01:34:38;0.30;99.90
34099;DHT22;20374;49.474;10.944;2023-03-03T01:37:04;0.30;99.90
34099;DHT22;20374;49.474;10.944;2023-03-03T01:39:30;0.30;99.90
34099;DHT22;20374;49.474;10.944;2023-03-03T01:41:56;0.30;99.90
34099;DHT22;20374;49.474;10.944;2023-03-03T01:44:22;0.30;99.90
34099;DHT22;20374;49.474;10.944;2023-03-03T01:46:59;0.30;99.90
34099;DHT22;20374;49.474;10.944;2023-03-03T01:49:38;0.30;99.90
34099;DHT22;20374;49.474;10.944;2023-03-03T01:52:14;0.30;99.90
34099;DHT22;20374;49.474;10.944;2023-03-03T01:54:46;0.30;99.90
34099;DHT22;20374;49.474;10.944;2023-03-03T01:57:18;0.30;99.90
34099;DHT22;20374;49.474;10.944;2023-03-03T01:59:48;0.20;99.90
34099;DHT22;20374;49.474;10.944;2023-03-03T02:02:14;0.20;99.90
34099;DHT22;20374;49.474;10.944;2023-03-03T02:04:41;0.20;99.90
34099;DHT22;20374;49.474;10.944;2023-03-03T02:07:09;0.10;99.90
34099;DHT22;20374;49.474;10.944;2023-03-03T02:12:08;0.10;99.90
34099;DHT22;20374;49.474;10.944;2023-03-03T02:14:35;0.10;99.90
34099;DHT22;20374;49.474;10.944;2023-03-03T02:17:02;0.00;99.90
34099;DHT22;20374;49.474;10.944;2023-03-03T02:22:00;0.00;99.90
34099;DHT22;20374;49.474;10.944;2023-03-03T02:24:36;0.00;99.90
34099;DHT22;20374;49.474;10.944;2023-03-03T02:27:04;0.00;99.90
34099;DHT22;20374;49.474;10.944;2023-03-03T02:29:30;-0.20;99.90
34099;DHT22;20374;49.474;10.944;2023-03-03T02:31:57;-0.10;99.90
34099;DHT22;20374;49.474;10.944;2023-03-03T02:34:23;-0.20;99.90
34099;DHT22;20374;49.474;10.944;2023-03-03T02:36:51;-0.20;99.90
34099;DHT22;20374;49.474;10.944;2023-03-03T02:39:25;-0.20;99.90
34099;DHT22;20374;49.474;10.944;2023-03-03T02:42:17;-0.30;99.90
34099;DHT22;20374;49.474;10.944;2023-03-03T02:44:49;-0.30;99.90
34099;DHT22;20374;49.474;10.944;2023-03-03T02:47:15;-0.30;99.90
34099;DHT22;20374;49.474;10.944;2023-03-03T02:49:41;-0.40;99.90
34099;DHT22;20374;49.474;10.944;2023-03-03T02:52:09;-0.40;99.90
34099;DHT22;20374;49.474;10.944;2023-03-03T02:54:37;-0.50;99.90
34099;DHT22;20374;49.474;10.944;2023-03-03T02:57:04;-0.50;99.90
34099;DHT22;20374;49.474;10.944;2023-03-03T02:59:30;-0.50;99.90
34099;DHT22;20374;49.474;10.944;2023-03-03T03:02:00;-0.50;99.90
34099;DHT22;20374;49.474;10.944;2023-03-03T03:04:27;-0.50;99.90
34099;DHT22;20374;49.474;10.944;2023-03-03T03:06:54;-0.50;99.90
34099;DHT22;20374;49.474;10.944;2023-03-03T03:09:23;-0.50;99.90
34099;DHT22;20374;49.474;10.944;2023-03-03T03:11:51;-0.50;99.90
34099;DHT22;20374;49.474;10.944;2023-03-03T03:14:20;-0.50;99.90
34099;DHT22;20374;49.474;10.944;2023-03-03T03:16:46;-0.60;99.90
34099;DHT22;20374;49.474;10.944;2023-03-03T03:19:12;-0.60;99.90
34099;DHT22;20374;49.474;10.944;2023-03-03T03:21:39;-0.60;99.90
34099;DHT22;20374;49.474;10.944;2023-03-03T03:24:07;-0.60;99.90
34099;DHT22;20374;49.474;10.944;2023-03-03T03:26:35;-0.70;99.90
34099;DHT22;20374;49.474;10.944;2023-03-03T03:29:02;-0.60;99.90
34099;DHT22;20374;49.474;10.944;2023-03-03T03:31:28;-0.60;99.90
34099;DHT22;20374;49.474;10.944;2023-03-03T03:33:54;-0.70;99.90
34099;DHT22;20374;49.474;10.944;2023-03-03T03:36:21;-0.70;99.90
34099;DHT22;20374;49.474;10.944;2023-03-03T03:38:47;-0.70;99.90
34099;DHT22;20374;49.474;10.944;2023-03-03T03:41:13;-0.70;99.90
34099;DHT22;20374;49.474;10.944;2023-03-03T03:43:39;-0.60;99.90
34099;DHT22;20374;49.474;10.944;2023-03-03T03:46:06;-0.60;99.90
34099;DHT22;20374;49.474;10.944;2023-03-03T03:48:33;-0.60;99.90
34099;DHT22;20374;49.474;10.944;2023-03-03T03:51:00;-0.60;99.90
34099;DHT22;20374;49.474;10.944;2023-03-03T03:53:27;-0.70;99.90
34099;DHT22;20374;49.474;10.944;2023-03-03T03:55:53;-0.70;99.90
34099;DHT22;20374;49.474;10.944;2023-03-03T03:58:19;-0.70;99.90
34099;DHT22;20374;49.474;10.944;2023-03-03T04:00:52;-0.70;99.90
34099;DHT22;20374;49.474;10.944;2023-03-03T04:03:18;-0.80;99.90
34099;DHT22;20374;49.474;10.944;2023-03-03T04:05:46;-0.80;99.90
34099;DHT22;20374;49.474;10.944;2023-03-03T04:08:12;-0.80;99.90
34099;DHT22;20374;49.474;10.944;2023-03-03T04:10:40;-0.80;99.90
34099;DHT22;20374;49.474;10.944;2023-03-03T04:13:06;-0.80;99.90
34099;DHT22;20374;49.474;10.944;2023-03-03T04:15:34;-0.80;99.90
34099;DHT22;20374;49.474;10.944;2023-03-03T04:18:00;-0.80;99.90
34099;DHT22;20374;49.474;10.944;2023-03-03T04:20:27;-0.70;99.90
34099;DHT22;20374;49.474;10.944;2023-03-03T04:22:54;-0.80;99.90
34099;DHT22;20374;49.474;10.944;2023-03-03T04:25:22;-0.80;99.90
34099;DHT22;20374;49.474;10.944;2023-03-03T04:27:50;-0.80;99.90
34099;DHT22;20374;49.474;10.944;2023-03-03T04:30:20;-0.80;99.90
34099;DHT22;20374;49.474;10.944;2023-03-03T04:32:48;-0.70;99.90
34099;DHT22;20374;49.474;10.944;2023-03-03T04:35:18;-0.80;99.90
34099;DHT22;20374;49.474;10.944;2023-03-03T04:37:44;-0.90;99.90
34099;DHT22;20374;49.474;10.944;2023-03-03T04:40:11;-1.00;99.90
34099;DHT22;20374;49.474;10.944;2023-03-03T04:42:39;-1.00;99.90
34099;DHT22;20374;49.474;10.944;2023-03-03T04:45:07;-1.10;99.90
34099;DHT22;20374;49.474;10.944;2023-03-03T04:47:34;-1.10;99.90
34099;DHT22;20374;49.474;10.944;2023-03-03T04:50:00;-1.10;99.90
34099;DHT22;20374;49.474;10.944;2023-03-03T04:52:29;-1.20;99.90
34099;DHT22;20374;49.474;10.944;2023-03-03T04:54:55;-1.20;99.90
34099;DHT22;20374;49.474;10.944;2023-03-03T04:57:21;-1.20;99.90
34099;DHT22;20374;49.474;10.944;2023-03-03T04:59:47;-1.20;99.90
34099;DHT22;20374;49.474;10.944;2023-03-03T05:02:13;-1.20;99.90
34099;DHT22;20374;49.474;10.944;2023-03-03T05:04:39;-1.10;99.90
34099;DHT22;20374;49.474;10.944;2023-03-03T05:07:05;-1.10;99.90
34099;DHT22;20374;49.474;10.944;2023-03-03T05:09:31;-1.10;99.90
34099;DHT22;20374;49.474;10.944;2023-03-03T05:11:57;-1.10;99.90
34099;DHT22;20374;49.474;10.944;2023-03-03T05:14:23;-1.10;99.90
34099;DHT22;20374;49.474;10.944;2023-03-03T05:16:49;-1.10;99.90
34099;DHT22;20374;49.474;10.944;2023-03-03T05:19:15;-1.10;99.90
34099;DHT22;20374;49.474;10.944;2023-03-03T05:21:41;-1.20;99.90
34099;DHT22;20374;49.474;10.944;2023-03-03T05:24:11;-1.20;99.90
34099;DHT22;20374;49.474;10.944;2023-03-03T05:26:38;-1.20;99.90
34099;DHT22;20374;49.474;10.944;2023-03-03T05:29:05;-1.30;99.90
34099;DHT22;20374;49.474;10.944;2023-03-03T05:31:31;-1.30;99.90
34099;DHT22;20374;49.474;10.944;2023-03-03T05:33:58;-1.30;99.90
34099;DHT22;20374;49.474;10.944;2023-03-03T05:36:24;-1.30;99.90
34099;DHT22;20374;49.474;10.944;2023-03-03T05:38:50;-1.40;99.90
34099;DHT22;20374;49.474;10.944;2023-03-03T05:41:16;-1.40;99.90
34099;DHT22;20374;49.474;10.944;2023-03-03T05:43:42;-1.40;99.90
34099;DHT22;20374;49.474;10.944;2023-03-03T05:46:09;-1.50;99.90
34099;DHT22;20374;49.474;10.944;2023-03-03T05:48:35;-1.50;99.90
34099;DHT22;20374;49.474;10.944;2023-03-03T05:51:01;-1.50;99.90
34099;DHT22;20374;49.474;10.944;2023-03-03T05:53:28;-1.50;99.90
34099;DHT22;20374;49.474;10.944;2023-03-03T05:55:56;-1.50;99.90
34099;DHT22;20374;49.474;10.944;2023-03-03T05:58:22;-1.50;99.90
34099;DHT22;20374;49.474;10.944;2023-03-03T06:00:48;-1.50;99.90
34099;DHT22;20374;49.474;10.944;2023-03-03T06:03:14;-1.50;99.90
34099;DHT22;20374;49.474;10.944;2023-03-03T06:05:41;-1.50;99.90
34099;DHT22;20374;49.474;10.944;2023-03-03T06:08:07;-1.50;99.90
34099;DHT22;20374;49.474;10.944;2023-03-03T06:10:34;-1.50;99.90
34099;DHT22;20374;49.474;10.944;2023-03-03T06:13:03;-1.50;99.90
34099;DHT22;20374;49.474;10.944;2023-03-03T06:15:29;-1.40;99.90
34099;DHT22;20374;49.474;10.944;2023-03-03T06:17:55;-1.30;99.90
34099;DHT22;20374;49.474;10.944;2023-03-03T06:20:21;-1.30;99.90
34099;DHT22;20374;49.474;10.944;2023-03-03T06:22:47;-1.30;99.90
34099;DHT22;20374;49.474;10.944;2023-03-03T06:25:13;-1.30;99.90
34099;DHT22;20374;49.474;10.944;2023-03-03T06:27:39;-1.20;99.90
34099;DHT22;20374;49.474;10.944;2023-03-03T06:30:06;-1.20;99.90
34099;DHT22;20374;49.474;10.944;2023-03-03T06:32:32;-1.20;99.90
34099;DHT22;20374;49.474;10.944;2023-03-03T06:34:58;-1.20;99.90
34099;DHT22;20374;49.474;10.944;2023-03-03T06:37:24;-1.20;99.90
34099;DHT22;20374;49.474;10.944;2023-03-03T06:39:50;-1.20;99.90
34099;DHT22;20374;49.474;10.944;2023-03-03T06:42:17;-1.10;99.90
34099;DHT22;20374;49.474;10.944;2023-03-03T06:44:44;-1.10;99.90
34099;DHT22;20374;49.474;10.944;2023-03-03T06:47:10;-1.00;99.90
34099;DHT22;20374;49.474;10.944;2023-03-03T06:49:36;-1.00;99.90
34099;DHT22;20374;49.474;10.944;2023-03-03T06:52:13;-0.80;99.90
34099;DHT22;20374;49.474;10.944;2023-03-03T06:54:39;-0.70;99.90
34099;DHT22;20374;49.474;10.944;2023-03-03T06:57:26;-0.60;99.90
34099;DHT22;20374;49.474;10.944;2023-03-03T06:59:56;-0.40;99.90
34099;DHT22;20374;49.474;10.944;2023-03-03T07:02:22;-0.20;99.90
34099;DHT22;20374;49.474;10.944;2023-03-03T07:04:48;-0.10;99.90
34099;DHT22;20374;49.474;10.944;2023-03-03T07:07:20;0.00;99.90
34099;DHT22;20374;49.474;10.944;2023-03-03T07:09:51;0.10;99.90
34099;DHT22;20374;49.474;10.944;2023-03-03T07:12:22;0.20;99.90
34099;DHT22;20374;49.474;10.944;2023-03-03T07:15:01;0.40;99.90
34099;DHT22;20374;49.474;10.944;2023-03-03T07:17:41;0.50;99.90
34099;DHT22;20374;49.474;10.944;2023-03-03T07:20:18;0.50;99.90
34099;DHT22;20374;49.474;10.944;2023-03-03T07:22:45;0.70;99.90
34099;DHT22;20374;49.474;10.944;2023-03-03T07:25:31;0.80;99.90
34099;DHT22;20374;49.474;10.944;2023-03-03T07:28:22;1.20;99.90
34099;DHT22;20374;49.474;10.944;2023-03-03T07:30:48;1.70;99.90
34099;DHT22;20374;49.474;10.944;2023-03-03T07:33:26;2.50;99.90
34099;DHT22;20374;49.474;10.944;2023-03-03T07:35:55;3.50;99.90
34099;DHT22;20374;49.474;10.944;2023-03-03T07:38:32;4.00;99.90
34099;DHT22;20374;49.474;10.944;2023-03-03T07:41:02;4.40;99.90
34099;DHT22;20374;49.474;10.944;2023-03-03T07:46:16;5.10;99.90
34099;DHT22;20374;49.474;10.944;2023-03-03T07:48:46;5.40;99.90
34099;DHT22;20374;49.474;10.944;2023-03-03T07:51:18;5.50;99.90
34099;DHT22;20374;49.474;10.944;2023-03-03T07:53:44;5.90;99.90
34099;DHT22;20374;49.474;10.944;2023-03-03T07:56:24;6.30;99.70
34099;DHT22;20374;49.474;10.944;2023-03-03T07:58:51;6.90;98.20
34099;DHT22;20374;49.474;10.944;2023-03-03T08:01:40;7.30;96.90
34099;DHT22;20374;49.474;10.944;2023-03-03T08:06:47;7.40;95.70
34099;DHT22;20374;49.474;10.944;2023-03-03T08:14:35;8.20;94.10
34099;DHT22;20374;49.474;10.944;2023-03-03T08:17:11;8.40;92.80
34099;DHT22;20374;49.474;10.944;2023-03-03T08:19:39;8.50;91.70
34099;DHT22;20374;49.474;10.944;2023-03-03T08:22:17;8.20;91.90
34099;DHT22;20374;49.474;10.944;2023-03-03T08:24:44;8.00;92.90
34099;DHT22;20374;49.474;10.944;2023-03-03T08:27:10;7.80;93.40
34099;DHT22;20374;49.474;10.944;2023-03-03T08:29:36;7.90;94.00
34099;DHT22;20374;49.474;10.944;2023-03-03T08:32:02;8.60;92.60
34099;DHT22;20374;49.474;10.944;2023-03-03T08:34:28;9.10;91.50
34099;DHT22;20374;49.474;10.944;2023-03-03T08:36:54;9.00;90.40
34099;DHT22;20374;49.474;10.944;2023-03-03T08:39:22;8.00;91.60
34099;DHT22;20374;49.474;10.944;2023-03-03T08:41:48;7.90;92.80
34099;DHT22;20374;49.474;10.944;2023-03-03T08:44:14;7.10;93.60
34099;DHT22;20374;49.474;10.944;2023-03-03T08:46:40;6.70;95.50
34099;DHT22;20374;49.474;10.944;2023-03-03T08:49:06;6.50;96.30
34099;DHT22;20374;49.474;10.944;2023-03-03T08:51:32;6.40;96.70
34099;DHT22;20374;49.474;10.944;2023-03-03T08:53:59;6.20;96.90
34099;DHT22;20374;49.474;10.944;2023-03-03T08:56:25;6.00;98.20
34099;DHT22;20374;49.474;10.944;2023-03-03T08:58:52;5.90;97.90
34099;DHT22;20374;49.474;10.944;2023-03-03T09:01:19;5.70;98.40
34099;DHT22;20374;49.474;10.944;2023-03-03T09:03:45;6.00;99.00
34099;DHT22;20374;49.474;10.944;2023-03-03T09:06:11;6.80;97.70
34099;DHT22;20374;49.474;10.944;2023-03-03T09:08:37;6.90;96.30
34099;DHT22;20374;49.474;10.944;2023-03-03T09:11:11;6.70;96.10
34099;DHT22;20374;49.474;10.944;2023-03-03T09:13:37;6.60;97.50
34099;DHT22;20374;49.474;10.944;2023-03-03T09:16:14;6.50;97.10
34099;DHT22;20374;49.474;10.944;2023-03-03T09:18:49;6.20;97.70
34099;DHT22;20374;49.474;10.944;2023-03-03T09:21:35;5.90;98.60
34099;DHT22;20374;49.474;10.944;2023-03-03T09:24:01;5.60;98.70
34099;DHT22;20374;49.474;10.944;2023-03-03T09:26:30;5.40;99.20
34099;DHT22;20374;49.474;10.944;2023-03-03T09:31:51;5.20;99.90
34099;DHT22;20374;49.474;10.944;2023-03-03T09:37:26;5.00;99.90
34099;DHT22;20374;49.474;10.944;2023-03-03T09:39:56;5.10;99.90
34099;DHT22;20374;49.474;10.944;2023-03-03T09:42:36;5.00;99.90
34099;DHT22;20374;49.474;10.944;2023-03-03T09:47:55;5.00;99.90
34099;DHT22;20374;49.474;10.944;2023-03-03T09:56:27;5.20;99.90
34099;DHT22;20374;49.474;10.944;2023-03-03T09:59:19;5.20;99.90
34099;DHT22;20374;49.474;10.944;2023-03-03T10:02:06;5.20;99.90
34099;DHT22;20374;49.474;10.944;2023-03-03T10:10:23;5.90;99.90
34099;DHT22;20374;49.474;10.944;2023-03-03T10:23:59;6.00;99.90
34099;DHT22;20374;49.474;10.944;2023-03-03T10:26:45;6.20;98.90
34099;DHT22;20374;49.474;10.944;2023-03-03T10:29:38;6.30;98.90
34099;DHT22;20374;49.474;10.944;2023-03-03T10:35:02;6.30;99.20
34099;DHT22;20374;49.474;10.944;2023-03-03T10:55:05;6.80;97.70
34099;DHT22;20374;49.474;10.944;2023-03-03T11:00:45;7.60;96.50
34099;DHT22;20374;49.474;10.944;2023-03-03T11:06:15;9.80;92.10
34099;DHT22;20374;49.474;10.944;2023-03-03T11:09:04;10.90;88.50
34099;DHT22;20374;49.474;10.944;2023-03-03T11:17:12;11.40;79.20
34099;DHT22;20374;49.474;10.944;2023-03-03T11:30:34;10.40;81.30
34099;DHT22;20374;49.474;10.944;2023-03-03T11:33:14;11.20;78.60
34099;DHT22;20374;49.474;10.944;2023-03-03T11:38:52;12.60;75.20
34099;DHT22;20374;49.474;10.944;2023-03-03T11:41:36;12.80;74.80
34099;DHT22;20374;49.474;10.944;2023-03-03T11:49:49;12.80;71.60
34099;DHT22;20374;49.474;10.944;2023-03-03T12:03:16;12.10;74.80
34099;DHT22;20374;49.474;10.944;2023-03-03T12:30:56;13.40;72.10
34099;DHT22;20374;49.474;10.944;2023-03-03T12:42:23;15.00;63.10
34099;DHT22;20374;49.474;10.944;2023-03-03T12:47:41;16.40;60.80
34099;DHT22;20374;49.474;10.944;2023-03-03T12:55:29;18.20;58.00
34099;DHT22;20374;49.474;10.944;2023-03-03T12:58:07;18.30;55.00
34099;DHT22;20374;49.474;10.944;2023-03-03T13:06:42;18.00;54.50
34099;DHT22;20374;49.474;10.944;2023-03-03T13:14:30;18.50;52.50
34099;DHT22;20374;49.474;10.944;2023-03-03T13:17:06;18.40;52.60
34099;DHT22;20374;49.474;10.944;2023-03-03T13:25:39;18.90;51.50
34099;DHT22;20374;49.474;10.944;2023-03-03T13:30:48;18.60;52.70
34099;DHT22;20374;49.474;10.944;2023-03-03T13:33:16;18.60;51.90
34099;DHT22;20374;49.474;10.944;2023-03-03T13:36:01;18.40;52.40
34099;DHT22;20374;49.474;10.944;2023-03-03T13:38:31;17.90;51.90
34099;DHT22;20374;49.474;10.944;2023-03-03T13:41:03;18.00;53.50
34099;DHT22;20374;49.474;10.944;2023-03-03T13:43:38;18.00;53.20
34099;DHT22;20374;49.474;10.944;2023-03-03T13:46:21;17.80;52.90
34099;DHT22;20374;49.474;10.944;2023-03-03T13:51:36;17.60;53.10
34099;DHT22;20374;49.474;10.944;2023-03-03T13:54:15;17.50;53.60
34099;DHT22;20374;49.474;10.944;2023-03-03T14:07:19;18.00;52.60
34099;DHT22;20374;49.474;10.944;2023-03-03T14:09:51;17.70;51.50
34099;DHT22;20374;49.474;10.944;2023-03-03T14:12:38;17.20;52.30
34099;DHT22;20374;49.474;10.944;2023-03-03T14:15:23;16.80;52.90
34099;DHT22;20374;49.474;10.944;2023-03-03T14:18:30;16.80;54.00
34099;DHT22;20374;49.474;10.944;2023-03-03T14:21:04;16.90;53.80
34099;DHT22;20374;49.474;10.944;2023-03-03T14:23:59;16.60;53.70
34099;DHT22;20374;49.474;10.944;2023-03-03T14:26:27;17.00;53.70
34099;DHT22;20374;49.474;10.944;2023-03-03T14:31:48;16.40;54.40
34099;DHT22;20374;49.474;10.944;2023-03-03T14:34:37;16.30;55.10
34099;DHT22;20374;49.474;10.944;2023-03-03T14:42:32;16.60;55.30
34099;DHT22;20374;49.474;10.944;2023-03-03T14:45:04;16.70;55.30
34099;DHT22;20374;49.474;10.944;2023-03-03T14:47:43;16.60;55.00
34099;DHT22;20374;49.474;10.944;2023-03-03T14:53:14;15.80;54.70
34099;DHT22;20374;49.474;10.944;2023-03-03T14:55:45;15.20;55.20
34099;DHT22;20374;49.474;10.944;2023-03-03T14:58:39;14.90;55.80
34099;DHT22;20374;49.474;10.944;2023-03-03T15:01:07;14.80;56.70
34099;DHT22;20374;49.474;10.944;2023-03-03T15:03:35;14.80;56.10
34099;DHT22;20374;49.474;10.944;2023-03-03T15:06:12;14.90;57.00
34099;DHT22;20374;49.474;10.944;2023-03-03T15:08:51;14.90;55.90
34099;DHT22;20374;49.474;10.944;2023-03-03T15:13:43;14.70;55.10
34099;DHT22;20374;49.474;10.944;2023-03-03T15:16:17;14.40;55.90
34099;DHT22;20374;49.474;10.944;2023-03-03T15:21:29;14.30;55.70
34099;DHT22;20374;49.474;10.944;2023-03-03T15:24:09;13.60;55.80
34099;DHT22;20374;49.474;10.944;2023-03-03T15:26:49;13.10;57.40
34099;DHT22;20374;49.474;10.944;2023-03-03T15:40:29;11.40;61.50
34099;DHT22;20374;49.474;10.944;2023-03-03T16:00:28;10.10;67.00
34099;DHT22;20374;49.474;10.944;2023-03-03T16:03:01;10.00;67.10
34099;DHT22;20374;49.474;10.944;2023-03-03T16:05:33;9.70;69.00
34099;DHT22;20374;49.474;10.944;2023-03-03T16:08:21;9.60;70.70
34099;DHT22;20374;49.474;10.944;2023-03-03T16:17:14;9.20;71.40
34099;DHT22;20374;49.474;10.944;2023-03-03T16:20:04;9.10;72.50
34099;DHT22;20374;49.474;10.944;2023-03-03T16:22:59;8.90;72.40
34099;DHT22;20374;49.474;10.944;2023-03-03T16:25:58;8.80;73.80
34099;DHT22;20374;49.474;10.944;2023-03-03T16:42:20;8.10;78.20
34099;DHT22;20374;49.474;10.944;2023-03-03T16:50:37;7.60;80.60
34099;DHT22;20374;49.474;10.944;2023-03-03T16:56:05;7.40;79.20
34099;DHT22;20374;49.474;10.944;2023-03-03T17:06:59;6.90;77.00
34099;DHT22;20374;49.474;10.944;2023-03-03T17:12:41;6.60;76.50
34099;DHT22;20374;49.474;10.944;2023-03-03T17:18:19;6.40;75.00
34099;DHT22;20374;49.474;10.944;2023-03-03T17:20:56;6.30;76.30
34099;DHT22;20374;49.474;10.944;2023-03-03T17:32:31;5.80;77.70
34099;DHT22;20374;49.474;10.944;2023-03-03T17:45:54;5.40;79.80
34099;DHT22;20374;49.474;10.944;2023-03-03T17:51:04;5.30;79.60
34099;DHT22;20374;49.474;10.944;2023-03-03T17:56:32;5.20;81.60
34099;DHT22;20374;49.474;10.944;2023-03-03T18:05:30;5.00;84.50
34099;DHT22;20374;49.474;10.944;2023-03-03T18:08:11;4.90;85.30
34099;DHT22;20374;49.474;10.944;2023-03-03T18:13:32;4.80;87.50
34099;DHT22;20374;49.474;10.944;2023-03-03T18:24:37;4.40;90.00
34099;DHT22;20374;49.474;10.944;2023-03-03T18:49:07;4.10;91.70
34099;DHT22;20374;49.474;10.944;2023-03-03T18:59:48;4.10;91.50
34099;DHT22;20374;49.474;10.944;2023-03-03T19:05:19;4.10;92.30
34099;DHT22;20374;49.474;10.944;2023-03-03T19:08:20;4.00;92.40
34099;DHT22;20374;49.474;10.944;2023-03-03T19:10:55;4.00;92.80
34099;DHT22;20374;49.474;10.944;2023-03-03T19:13:44;4.00;93.10
34099;DHT22;20374;49.474;10.944;2023-03-03T19:21:22;3.70;93.80
34099;DHT22;20374;49.474;10.944;2023-03-03T19:23:54;3.70;94.40
34099;DHT22;20374;49.474;10.944;2023-03-03T19:45:29;3.30;97.00
34099;DHT22;20374;49.474;10.944;2023-03-03T19:48:04;3.20;97.50
34099;DHT22;20374;49.474;10.944;2023-03-03T19:50:53;3.10;97.70
34099;DHT22;20374;49.474;10.944;2023-03-03T20:27:07;2.30;99.90
34099;DHT22;20374;49.474;10.944;2023-03-03T20:35:42;2.20;99.90
34099;DHT22;20374;49.474;10.944;2023-03-03T20:43:29;2.10;99.90
34099;DHT22;20374;49.474;10.944;2023-03-03T20:52:18;1.90;99.90
34099;DHT22;20374;49.474;10.944;2023-03-03T20:54:47;1.80;99.90
34099;DHT22;20374;49.474;10.944;2023-03-03T21:05:15;1.70;99.90
34099;DHT22;20374;49.474;10.944;2023-03-03T21:10:23;1.60;99.90
34099;DHT22;20374;49.474;10.944;2023-03-03T21:12:55;1.60;99.90
34099;DHT22;20374;49.474;10.944;2023-03-03T21:15:30;1.60;99.90
34099;DHT22;20374;49.474;10.944;2023-03-03T21:17:57;1.50;99.90
34099;DHT22;20374;49.474;10.944;2023-03-03T21:20:32;1.50;99.90
34099;DHT22;20374;49.474;10.944;2023-03-03T21:23:00;1.40;99.90
34099;DHT22;20374;49.474;10.944;2023-03-03T21:25:46;1.40;99.90
34099;DHT22;20374;49.474;10.944;2023-03-03T21:28:17;1.30;99.90
34099;DHT22;20374;49.474;10.944;2023-03-03T21:31:02;1.20;99.90
34099;DHT22;20374;49.474;10.944;2023-03-03T21:33:50;1.20;99.90
34099;DHT22;20374;49.474;10.944;2023-03-03T21:38:57;1.00;99.90
34099;DHT22;20374;49.474;10.944;2023-03-03T21:41:23;0.90;99.90
34099;DHT22;20374;49.474;10.944;2023-03-03T21:43:53;0.80;99.90
34099;DHT22;20374;49.474;10.944;2023-03-03T21:46:23;0.80;99.90
34099;DHT22;20374;49.474;10.944;2023-03-03T21:48:50;0.70;99.90
34099;DHT22;20374;49.474;10.944;2023-03-03T21:51:16;0.70;99.90
34099;DHT22;20374;49.474;10.944;2023-03-03T21:53:45;0.70;99.90
34099;DHT22;20374;49.474;10.944;2023-03-03T21:56:11;0.70;99.90
34099;DHT22;20374;49.474;10.944;2023-03-03T21:58:41;0.70;99.90
34099;DHT22;20374;49.474;10.944;2023-03-03T22:01:07;0.60;99.90
34099;DHT22;20374;49.474;10.944;2023-03-03T22:06:07;0.50;99.90
34099;DHT22;20374;49.474;10.944;2023-03-03T22:08:33;0.50;99.90
34099;DHT22;20374;49.474;10.944;2023-03-03T22:10:59;0.50;99.90
34099;DHT22;20374;49.474;10.944;2023-03-03T22:13:25;0.50;99.90
34099;DHT22;20374;49.474;10.944;2023-03-03T22:15:52;0.40;99.90
34099;DHT22;20374;49.474;10.944;2023-03-03T22:18:18;0.30;99.90
34099;DHT22;20374;49.474;10.944;2023-03-03T22:20:47;0.30;99.90
34099;DHT22;20374;49.474;10.944;2023-03-03T22:23:15;0.30;99.90
34099;DHT22;20374;49.474;10.944;2023-03-03T22:25:41;0.30;99.90
34099;DHT22;20374;49.474;10.944;2023-03-03T22:28:07;0.30;99.90
34099;DHT22;20374;49.474;10.944;2023-03-03T22:30:33;0.20;99.90
34099;DHT22;20374;49.474;10.944;2023-03-03T22:32:59;0.20;99.90
34099;DHT22;20374;49.474;10.944;2023-03-03T22:35:25;0.10;99.90
34099;DHT22;20374;49.474;10.944;2023-03-03T22:37:51;0.10;99.90
34099;DHT22;20374;49.474;10.944;2023-03-03T22:40:17;0.20;99.90
34099;DHT22;20374;49.474;10.944;2023-03-03T22:42:43;0.10;99.90
34099;DHT22;20374;49.474;10.944;2023-03-03T22:45:09;0.20;99.90
34099;DHT22;20374;49.474;10.944;2023-03-03T22:47:35;0.20;99.90
34099;DHT22;20374;49.474;10.944;2023-03-03T22:50:02;0.20;99.90
34099;DHT22;20374;49.474;10.944;2023-03-03T22:52:28;0.30;99.90
34099;DHT22;20374;49.474;10.944;2023-03-03T22:54:54;0.20;99.90
34099;DHT22;20374;49.474;10.944;2023-03-03T22:57:22;0.20;99.90
34099;DHT22;20374;49.474;10.944;2023-03-03T22:59:48;0.20;99.90
34099;DHT22;20374;49.474;10.944;2023-03-03T23:02:14;0.10;99.90
34099;DHT22;20374;49.474;10.944;2023-03-03T23:04:40;0.10;99.90
34099;DHT22;20374;49.474;10.944;2023-03-03T23:07:06;0.10;99.90
34099;DHT22;20374;49.474;10.944;2023-03-03T23:09:32;0.10;99.90
34099;DHT22;20374;49.474;10.944;2023-03-03T23:11:57;0.10;99.90
34099;DHT22;20374;49.474;10.944;2023-03-03T23:14:23;0.10;99.90
34099;DHT22;20374;49.474;10.944;2023-03-03T23:16:49;0.10;99.90
34099;DHT22;20374;49.474;10.944;2023-03-03T23:19:15;0.20;99.90
34099;DHT22;20374;49.474;10.944;2023-03-03T23:21:41;0.20;99.90